Georgia Highway — 7JCV — position and weather

sailwx.info

Track history (hours):
 
Tides and Currents Weather Stations Pressure Air Temp Water Temp Dewpoint Dewpoint Depression Visibility Wind Speed Wind Dir Waves Ship Positions

Georgia Highway

Last reported at 2017-Nov-19 23:08 UTC. Time now 2017-Nov-20 13:57 UTC.
Position N 27°42' W 119°11'.

Length 200 m; draft 9 m.

Type: Cargo ship. MMSI: 432629000.

Date/timePositionNaut miles runAvg speedWind from/ knotsBaromVisibWave heightAir tempDewpointWater temp
2017-Nov-19 23:08N 27°42' W 119°11'215.5
2017-Nov-19 23:00N 27°43' W 119°13'915.4
2017-Nov-19 22:23N 27°48' W 119°22'615.6
2017-Nov-19 22:00N 27°51' W 119°28'815.5
2017-Nov-19 21:30N 27°56' W 119°35'815.5
2017-Nov-19 20:59N 27°60' W 119°43'2015.6
2017-Nov-19 19:41N 28°10' W 120°03'315.9
2017-Nov-19 19:30N 28°11' W 120°06'815.6
2017-Nov-19 19:00N 28°15' W 120°13'815.5
2017-Nov-19 18:29N 28°19' W 120°21'  
Track history (hours):
 
Tides and Currents Weather Stations Pressure Air Temp Water Temp Dewpoint Dewpoint Depression Visibility Wind Speed Wind Dir Waves Ship Positions

Georgia Highway

Last reported at 2017-Nov-19 23:08 UTC. Time now 2017-Nov-20 13:57 UTC.
Position N 27°42' W 119°11'.

Length 200 m; draft 9 m.

Type: Cargo ship. MMSI: 432629000.

Date/timePositionNaut miles runAvg speedWind from/ knotsBaromVisibWave heightAir tempDewpointWater temp
2017-Nov-19 23:08N 27°42' W 119°11'215.5
2017-Nov-19 23:00N 27°43' W 119°13'915.4
2017-Nov-19 22:23N 27°48' W 119°22'615.6
2017-Nov-19 22:00N 27°51' W 119°28'815.5
2017-Nov-19 21:30N 27°56' W 119°35'815.5
2017-Nov-19 20:59N 27°60' W 119°43'2015.6
2017-Nov-19 19:41N 28°10' W 120°03'315.9
2017-Nov-19 19:30N 28°11' W 120°06'815.6
2017-Nov-19 19:00N 28°15' W 120°13'815.5
2017-Nov-19 18:29N 28°19' W 120°21'  

Dump ship's entire track history